Time;durP1;ratioP1;P1;durP2;ratioP2;P2;SDS_P1;SDS_P2;PMS_P1;PMS_P2;Temp;Humidity;BMP_temperature;BMP_pressure;BME280_temperature;BME280_humidity;BME280_pressure;Samples;Min_cycle;Max_cycle;Signal;HPM_P1;HPM_P2
2021/12/21 00:00:55;;;;;;;11.20;6.47;;;;;;;-0.43;100.00;100438.47;5052097;28;20035;-80
2021/12/21 00:03:20;;;;;;;12.57;5.85;;;;;;;-0.36;100.00;100458.19;5050810;28;20114;-79
2021/12/21 00:05:46;;;;;;;12.32;7.00;;;;;;;-0.36;100.00;100457.34;5052236;28;20025;-79
2021/12/21 00:08:13;;;;;;;12.30;7.05;;;;;;;-0.51;100.00;100430.75;5050840;28;20025;-79
2021/12/21 00:10:45;;;;;;;13.70;6.57;;;;;;;-0.33;100.00;100467.63;5052181;28;20024;-79
2021/12/21 00:13:38;;;;;;;9.07;6.15;;;;;;;-0.47;100.00;100439.28;5050445;28;20021;-79
2021/12/21 00:16:29;;;;;;;13.02;6.80;;;;;;;-0.36;100.00;100462.44;5050887;28;20115;-80
2021/12/21 00:21:34;;;;;;;10.90;5.88;;;;;;;-0.39;100.00;100465.81;5051633;28;20036;-79
2021/12/21 00:24:09;;;;;;;10.98;6.40;;;;;;;-0.39;100.00;100465.81;5052167;28;20036;-79
2021/12/21 00:26:34;;;;;;;11.20;5.85;;;;;;;-0.53;100.00;100445.22;5051828;28;20025;-79
2021/12/21 00:29:02;;;;;;;13.90;6.63;;;;;;;-0.43;100.00;100460.66;5051094;28;20483;-80
2021/12/21 00:31:31;;;;;;;12.05;6.13;;;;;;;-0.34;100.00;100473.56;5068966;28;20074;-79
2021/12/21 00:33:58;;;;;;;9.98;6.13;;;;;;;-0.46;100.00;100466.63;5069357;28;20044;-79
2021/12/21 00:36:26;;;;;;;11.43;6.18;;;;;;;-0.48;100.00;100465.72;5069041;28;20403;-79
2021/12/21 00:38:53;;;;;;;11.32;6.70;;;;;;;-0.47;100.00;100456.34;5069632;28;20037;-79
2021/12/21 00:41:19;;;;;;;12.60;7.13;;;;;;;-0.41;100.00;100462.41;5069148;28;20048;-79
2021/12/21 00:43:45;;;;;;;11.68;6.68;;;;;;;-0.55;100.00;100441.78;5069258;28;20044;-79
2021/12/21 00:46:11;;;;;;;11.55;7.03;;;;;;;-0.33;100.00;100481.25;5069012;28;20055;-78
2021/12/21 00:48:37;;;;;;;13.60;6.82;;;;;;;-0.34;100.00;100484.69;5069273;28;20419;-79
2021/12/21 00:51:06;;;;;;;12.85;6.47;;;;;;;-0.43;100.00;100470.91;5069190;28;20163;-79
2021/12/21 00:53:35;;;;;;;8.45;5.63;;;;;;;-0.55;100.00;100444.34;5068795;28;20076;-79
2021/12/21 00:56:01;;;;;;;12.55;6.82;;;;;;;-0.47;100.00;100464.88;5069160;28;20064;-79
2021/12/21 00:58:26;;;;;;;11.20;6.55;;;;;;;-0.34;100.00;100482.13;5068830;28;20123;-79
2021/12/21 01:00:52;;;;;;;10.65;6.70;;;;;;;-0.47;100.00;100457.19;5069114;28;20476;-79
2021/12/21 01:03:18;;;;;;;9.80;5.93;;;;;;;-0.57;100.00;100440.03;5052879;28;20095;-79
2021/12/21 01:05:57;;;;;;;9.40;6.05;;;;;;;-0.35;100.00;100485.50;5050138;28;20025;-79
2021/12/21 01:08:27;;;;;;;10.75;6.20;;;;;;;-0.37;100.00;100483.78;5050143;28;20033;-79
2021/12/21 01:11:09;;;;;;;13.70;6.43;;;;;;;-0.45;100.00;100467.47;5050233;28;20105;-79
2021/12/21 01:13:45;;;;;;;12.50;6.18;;;;;;;-0.37;100.00;100483.78;5049787;28;20481;-79
2021/12/21 01:19:08;;;;;;;16.20;7.53;;;;;;;-0.41;100.00;100480.31;5051330;28;20081;-79
2021/12/21 01:21:29;;;;;;;13.23;6.50;;;;;;;-0.44;100.00;100474.31;5051205;28;20033;-79
2021/12/21 01:24:21;;;;;;;12.30;6.17;;;;;;;-0.37;100.00;100486.34;5050022;28;20032;-79
2021/12/21 01:27:12;;;;;;;11.43;6.55;;;;;;;-0.36;100.00;100494.03;5050162;28;20029;-79
2021/12/21 01:30:09;;;;;;;13.32;7.28;;;;;;;-0.37;100.00;100482.06;5051360;28;20505;-79
2021/12/21 01:32:50;;;;;;;12.00;5.82;;;;;;;-0.39;100.00;100477.75;5050791;28;20054;-79
2021/12/21 01:35:26;;;;;;;11.73;7.50;;;;;;;-0.39;100.00;100483.75;5051176;28;20025;-79
2021/12/21 01:38:00;;;;;;;13.80;6.78;;;;;;;-0.35;100.00;100497.44;5051268;28;20021;-79
2021/12/21 01:51:01;;;;;;;12.07;6.00;;;;;;;-0.41;100.00;100495.69;5054945;28;20044;-79
2021/12/21 01:53:27;;;;;;;13.15;6.85;;;;;;;-0.47;100.00;100476.81;5052791;28;20276;-79
2021/12/21 01:55:52;;;;;;;13.18;6.15;;;;;;;-0.40;100.00;100489.72;5054681;28;20028;-79
2021/12/21 01:58:18;;;;;;;9.63;5.70;;;;;;;-0.42;100.00;100486.28;5054236;28;20064;-79
2021/12/21 02:00:44;;;;;;;16.48;5.68;;;;;;;-0.42;100.00;100482.84;5054519;28;20021;-79
2021/12/21 02:03:09;;;;;;;12.80;5.47;;;;;;;-0.49;100.00;100461.47;5054432;28;20400;-79
2021/12/21 02:05:36;;;;;;;11.43;5.45;;;;;;;-0.52;100.00;100452.03;5054118;28;20044;-79
2021/12/21 02:08:02;;;;;;;13.05;5.60;;;;;;;-0.37;100.00;100468.41;5054286;28;20426;-79
2021/12/21 02:10:28;;;;;;;11.00;5.75;;;;;;;-0.40;100.00;100473.50;5052815;28;20127;-79
2021/12/21 02:12:53;;;;;;;11.80;6.22;;;;;;;-0.47;100.00;100462.31;5054312;28;20116;-80
2021/12/21 02:15:19;;;;;;;8.48;5.10;;;;;;;-0.37;100.00;100474.41;5054141;28;20472;-79
2021/12/21 02:20:40;;;;;;;9.65;5.10;;;;;;;-0.33;100.00;100468.47;5054035;28;20072;-79
2021/12/21 02:30:41;;;;;;;10.27;5.15;;;;;;;-0.34;100.00;100458.19;5053982;28;20132;-79
2021/12/21 02:33:06;;;;;;;9.68;5.32;;;;;;;-0.34;100.00;100451.41;5052342;28;20079;-79
2021/12/21 02:35:32;;;;;;;10.00;5.68;;;;;;;-0.33;100.00;100449.69;5054028;28;20029;-79
2021/12/21 02:37:57;;;;;;;10.57;5.78;;;;;;;-0.32;100.00;100457.38;5053947;28;20432;-78
2021/12/21 02:40:23;;;;;;;8.23;4.82;;;;;;;-0.28;100.00;100464.25;5053929;28;20082;-79
2021/12/21 02:42:48;;;;;;;8.05;4.68;;;;;;;-0.47;100.00;100420.53;5053729;28;20039;-79
2021/12/21 02:45:14;;;;;;;9.50;4.75;;;;;;;-0.31;100.00;100459.09;5053431;28;20028;-78
2021/12/21 02:47:39;;;;;;;12.05;4.97;;;;;;;-0.31;100.00;100455.66;5053546;28;20029;-79
2021/12/21 02:50:06;;;;;;;8.95;4.40;;;;;;;-0.47;100.00;100423.94;5052136;28;20032;-79
2021/12/21 02:52:33;;;;;;;8.15;4.82;;;;;;;-0.27;100.00;100457.41;5052309;28;20056;-79
2021/12/21 02:54:59;;;;;;;9.63;5.25;;;;;;;-0.39;100.00;100435.13;5052207;28;20492;-79
2021/12/21 02:57:25;;;;;;;7.78;4.53;;;;;;;-0.46;100.00;100422.22;5053607;28;20033;-79
2021/12/21 02:59:50;;;;;;;8.90;5.32;;;;;;;-0.28;100.00;100446.34;5053302;28;20086;-79
2021/12/21 03:02:16;;;;;;;8.27;4.82;;;;;;;-0.28;100.00;100445.47;5051679;28;20033;-79
2021/12/21 03:04:43;;;;;;;7.60;4.88;;;;;;;-0.24;100.00;100462.59;5053543;28;20036;-79
2021/12/21 03:09:57;;;;;;;8.13;4.55;;;;;;;-0.26;100.00;100454.00;5053147;28;20036;-79
2021/12/21 03:14:50;;;;;;;7.95;4.90;;;;;;;-0.27;100.00;100450.59;5052967;28;20033;-79
2021/12/21 03:17:16;;;;;;;9.55;5.15;;;;;;;-0.37;100.00;100435.16;5053271;28;20031;-79
2021/12/21 03:19:42;;;;;;;12.45;5.63;;;;;;;-0.29;100.00;100452.31;5051667;28;20032;-79
2021/12/21 03:22:09;;;;;;;7.00;4.88;;;;;;;-0.33;100.00;100442.88;5051695;28;20033;-79
2021/12/21 03:24:35;;;;;;;9.52;5.18;;;;;;;-0.40;100.00;100427.44;5051309;28;20032;-79
2021/12/21 03:27:01;;;;;;;10.63;5.25;;;;;;;-0.42;100.00;100429.09;5052743;28;20025;-79
2021/12/21 03:29:27;;;;;;;8.55;5.15;;;;;;;-0.33;100.00;100431.78;5052491;28;20100;-80
2021/12/21 03:31:53;;;;;;;8.55;5.18;;;;;;;-0.41;100.00;100418.91;5052970;28;20033;-79
2021/12/21 03:34:18;;;;;;;7.97;4.80;;;;;;;-0.33;100.00;100432.63;5052694;28;20488;-79
2021/12/21 03:36:44;;;;;;;10.95;4.95;;;;;;;-0.42;100.00;100417.19;5051419;28;20036;-79
2021/12/21 03:39:17;;;;;;;7.35;5.28;;;;;;;-0.34;100.00;100433.47;5051319;28;20029;-80
2021/12/21 03:41:47;;;;;;;9.02;5.07;;;;;;;-0.32;100.00;100430.94;5051136;28;20388;-79
2021/12/21 03:44:13;;;;;;;9.32;4.93;;;;;;;-0.42;100.00;100418.84;5052629;28;20024;-79
2021/12/21 03:46:51;;;;;;;9.02;5.55;;;;;;;-0.32;100.00;100436.91;5052681;28;20037;-80
2021/12/21 03:52:24;;;;;;;7.82;4.93;;;;;;;-0.45;100.00;100413.75;5052331;28;20126;-79
2021/12/21 03:54:57;;;;;;;11.18;5.63;;;;;;;-0.56;100.00;100395.69;5051222;28;20036;-79
2021/12/21 03:57:23;;;;;;;10.77;5.63;;;;;;;-0.48;100.00;100414.56;5052115;28;20029;-79
2021/12/21 03:59:50;;;;;;;11.32;6.20;;;;;;;-0.53;100.00;100405.97;5052300;28;20029;-79
2021/12/21 04:02:16;;;;;;;11.07;5.90;;;;;;;-0.42;100.00;100431.66;5052147;28;20033;-79
2021/12/21 04:04:43;;;;;;;9.40;5.47;;;;;;;-0.42;100.00;100430.00;5050705;28;20112;-79
2021/12/21 04:07:09;;;;;;;7.85;4.43;;;;;;;-0.43;100.00;100423.13;5052365;28;20102;-79
2021/12/21 04:09:35;;;;;;;10.90;5.40;;;;;;;-0.50;100.00;100413.69;5052255;28;20029;-79
2021/12/21 04:12:03;;;;;;;10.70;4.70;;;;;;;-0.52;100.00;100416.22;5050669;28;20116;-78
2021/12/21 04:14:30;;;;;;;8.65;5.18;;;;;;;-0.51;100.00;100428.19;5051749;28;20025;-79
2021/12/21 04:16:57;;;;;;;11.15;6.03;;;;;;;-0.41;100.00;100444.50;5052094;28;20041;-80
2021/12/21 04:19:22;;;;;;;9.48;5.82;;;;;;;-0.53;100.00;100423.88;5051597;28;20108;-79
2021/12/21 04:21:48;;;;;;;9.35;5.55;;;;;;;-0.45;100.00;100431.66;5052442;28;20375;-79
2021/12/21 04:24:13;;;;;;;9.38;5.47;;;;;;;-0.31;100.00;100458.22;5050607;28;20048;-79
2021/12/21 04:26:39;;;;;;;9.60;5.03;;;;;;;-0.36;100.00;100444.53;5051967;28;20103;-79
2021/12/21 04:29:04;;;;;;;10.60;5.35;;;;;;;-0.37;100.00;100446.25;5050700;28;20044;-80
2021/12/21 04:31:30;;;;;;;10.63;5.18;;;;;;;-0.39;100.00;100430.00;5052023;28;20365;-79
2021/12/21 04:33:55;;;;;;;8.88;4.88;;;;;;;-0.29;100.00;100452.31;5051570;28;20472;-79
2021/12/21 04:36:21;;;;;;;8.95;5.55;;;;;;;-0.29;100.00;100448.88;5050091;28;20178;-79
2021/12/21 04:38:49;;;;;;;8.88;5.53;;;;;;;-0.28;100.00;100454.00;5050567;28;20028;-80
2021/12/21 04:41:27;;;;;;;10.77;5.63;;;;;;;-0.33;100.00;100442.88;5051608;28;20025;-79
2021/12/21 04:43:56;;;;;;;12.18;6.10;;;;;;;-0.24;100.00;100461.72;5050454;28;20484;-79
2021/12/21 04:46:23;;;;;;;9.40;5.72;;;;;;;-0.32;100.00;100448.84;5051390;28;20183;-79
2021/12/21 04:48:49;;;;;;;10.45;5.70;;;;;;;-0.36;100.00;100442.84;5050567;28;20051;-79
2021/12/21 04:51:14;;;;;;;9.52;5.97;;;;;;;-0.37;100.00;100440.28;5051637;28;20481;-79
2021/12/21 04:53:40;;;;;;;11.25;5.13;;;;;;;-0.26;100.00;100454.88;5051656;28;20056;-79
2021/12/21 04:56:06;;;;;;;11.10;5.63;;;;;;;-0.42;100.00;100432.53;5050354;28;20025;-79
2021/12/21 04:58:32;;;;;;;8.52;5.53;;;;;;;-0.23;100.00;100463.44;5050083;28;20033;-79
2021/12/21 05:00:57;;;;;;;11.07;5.57;;;;;;;-0.25;100.00;100466.00;5051484;28;20035;-79
2021/12/21 05:03:24;;;;;;;15.25;7.25;;;;;;;-0.34;100.00;100442.84;5050223;28;20144;-79
2021/12/21 05:05:50;;;;;;;13.63;6.50;;;;;;;-0.19;100.00;100462.63;5051704;28;20068;-79
2021/12/21 05:08:24;;;;;;;14.23;6.50;;;;;;;-0.17;100.00;100473.72;5051309;28;20033;-79
2021/12/21 05:10:53;;;;;;;22.58;9.57;;;;;;;-0.24;100.00;100462.59;5050228;28;20028;-79
2021/12/21 05:13:21;;;;;;;22.35;9.55;;;;;;;-0.28;100.00;100456.56;5051212;28;20170;-79
2021/12/21 05:15:47;;;;;;;19.30;9.77;;;;;;;-0.24;100.00;100461.72;5051994;28;20372;-79
2021/12/21 05:18:14;;;;;;;26.58;9.98;;;;;;;-0.19;100.00;100483.97;5053731;28;20039;-80
2021/12/21 05:20:40;;;;;;;20.60;9.00;;;;;;;-0.25;100.00;100466.00;5055584;28;20029;-79
2021/12/21 05:23:07;;;;;;;17.33;7.82;;;;;;;-0.20;100.00;100478.84;5053958;28;20036;-79
2021/12/21 05:25:33;;;;;;;17.05;7.50;;;;;;;-0.22;100.00;100475.38;5054890;28;20083;-79
2021/12/21 05:27:58;;;;;;;13.82;6.88;;;;;;;-0.20;100.00;100474.56;5054999;28;20036;-79
2021/12/21 05:30:26;;;;;;;11.63;6.05;;;;;;;-0.20;100.00;100476.28;5054942;28;20388;-79
2021/12/21 05:32:52;;;;;;;17.13;7.60;;;;;;;-0.30;100.00;100453.13;5053768;28;20032;-78
2021/12/21 05:35:19;;;;;;;8.88;5.45;;;;;;;-0.28;100.00;100464.25;5054808;28;20029;-79
2021/12/21 05:37:46;;;;;;;15.80;7.90;;;;;;;-0.34;100.00;100451.41;5053709;28;20032;-78
2021/12/21 05:40:15;;;;;;;12.52;6.22;;;;;;;-0.26;100.00;100460.00;5054677;28;20032;-78
2021/12/21 05:42:42;;;;;;;12.85;6.60;;;;;;;-0.19;100.00;100472.88;5054788;28;20025;-78
2021/12/21 05:45:10;;;;;;;17.23;8.48;;;;;;;-0.31;100.00;100450.56;5054968;28;20032;-78
2021/12/21 05:47:35;;;;;;;16.23;9.07;;;;;;;-0.29;100.00;100446.31;5054589;28;20082;-79
2021/12/21 05:50:02;;;;;;;19.98;8.75;;;;;;;-0.27;100.00;100447.19;5053533;28;20104;-79
2021/12/21 05:52:28;;;;;;;20.42;10.85;;;;;;;-0.11;100.00;100472.09;5053173;28;20443;-79
2021/12/21 05:54:53;;;;;;;20.25;10.07;;;;;;;-0.11;100.00;100472.09;5054637;28;20025;-79
2021/12/21 05:57:18;;;;;;;25.17;12.27;;;;;;;-0.08;100.00;100473.84;5053049;28;20025;-79
2021/12/21 05:59:44;;;;;;;28.13;12.77;;;;;;;-0.13;100.00;100476.34;5054808;28;20391;-79
2021/12/21 06:02:09;;;;;;;32.60;16.45;;;;;;;-0.18;100.00;100461.78;5054599;28;20039;-79
2021/12/21 06:04:35;;;;;;;41.35;22.50;;;;;;;-0.06;100.00;100485.81;5052869;28;20018;-79
2021/12/21 06:07:00;;;;;;;111.90;49.88;;;;;;;-0.08;100.00;100478.97;5054643;28;20112;-79
2021/12/21 06:09:27;;;;;;;98.68;49.40;;;;;;;-0.10;100.00;100475.50;5052835;28;20108;-79
2021/12/21 06:12:07;;;;;;;73.97;41.97;;;;;;;-0.09;100.00;100469.53;5052780;28;20029;-79
2021/12/21 06:28:05;;;;;;;15.80;8.77;;;;;;;-0.08;100.00;100482.38;5054052;28;20067;-79
2021/12/21 06:30:32;;;;;;;19.63;8.73;;;;;;;-0.16;100.00;100478.88;5053806;28;20032;-77
2021/12/21 06:32:57;;;;;;;13.07;8.20;;;;;;;-0.15;100.00;100487.41;5053698;28;20382;-77
2021/12/21 06:35:23;;;;;;;18.13;9.55;;;;;;;-0.15;100.00;100501.06;5053989;28;20112;-80
2021/12/21 06:37:49;;;;;;;24.52;11.77;;;;;;;-0.13;100.00;100507.06;5053970;28;20388;-80
2021/12/21 06:40:15;;;;;;;20.48;10.48;;;;;;;-0.17;100.00;100496.78;5060726;28;20028;-79
2021/12/21 06:42:41;;;;;;;19.27;9.88;;;;;;;-0.24;100.00;100477.09;5073974;28;20051;-79
2021/12/21 06:45:14;;;;;;;14.50;7.70;;;;;;;-0.17;100.00;100500.22;5073567;28;20023;-80
2021/12/21 06:53:09;;;;;;;18.27;9.48;;;;;;;-0.29;100.00;100490.69;5073075;28;20091;-80
2021/12/21 06:55:35;;;;;;;23.52;12.45;;;;;;;-0.32;100.00;100484.69;5073090;28;20048;-79
2021/12/21 06:58:00;;;;;;;20.65;11.80;;;;;;;-0.35;100.00;100489.75;5073592;28;20107;-80
2021/12/21 07:00:26;;;;;;;18.85;10.55;;;;;;;-0.24;100.00;100505.25;5073235;28;20111;-80
2021/12/21 07:03:12;;;;;;;14.80;7.97;;;;;;;-0.24;100.00;100508.66;5070509;28;20036;-79
2021/12/21 07:05:40;;;;;;;12.57;7.90;;;;;;;-0.26;100.00;100505.22;5053577;28;20535;-79
2021/12/21 07:08:08;;;;;;;17.00;7.35;;;;;;;-0.49;100.00;100481.94;5070423;28;20119;-80
2021/12/21 07:10:34;;;;;;;15.52;7.40;;;;;;;-0.41;100.00;100495.69;5053646;28;20048;-80
2021/12/21 07:18:30;;;;;;;14.98;7.72;;;;;;;-0.33;100.00;100511.97;5070481;28;20058;-80
2021/12/21 07:20:58;;;;;;;14.77;8.57;;;;;;;-0.30;100.00;100517.13;5070254;28;20050;-80
2021/12/21 07:23:24;;;;;;;15.73;9.57;;;;;;;-0.39;100.00;100501.66;5069799;28;20167;-80
2021/12/21 07:25:50;;;;;;;21.63;10.50;;;;;;;-0.37;100.00;100500.00;5069994;28;20021;-80
2021/12/21 07:28:16;;;;;;;15.55;9.80;;;;;;;-0.27;100.00;100519.72;5069794;28;20212;-80
2021/12/21 07:30:41;;;;;;;12.05;7.32;;;;;;;-0.35;100.00;100502.56;5069831;28;20025;-80
2021/12/21 07:33:07;;;;;;;10.55;6.35;;;;;;;-0.28;100.00;100517.16;5069946;28;20040;-80
2021/12/21 07:35:33;;;;;;;11.27;7.43;;;;;;;-0.29;100.00;100518.00;5070992;28;20035;-80
2021/12/21 07:38:00;;;;;;;11.82;6.72;;;;;;;-0.24;100.00;100524.03;5070723;28;20063;-80
2021/12/21 07:40:25;;;;;;;14.10;7.97;;;;;;;-0.24;100.00;100518.06;5070862;28;20028;-80
2021/12/21 07:42:51;;;;;;;13.35;7.60;;;;;;;-0.21;100.00;100520.63;5072620;28;20028;-80
2021/12/21 07:45:18;;;;;;;15.25;8.30;;;;;;;-0.23;100.00;100512.06;5072286;28;20021;-80
2021/12/21 07:47:46;;;;;;;14.93;8.63;;;;;;;-0.21;100.00;100510.38;5072447;28;20386;-80
2021/12/21 07:50:16;;;;;;;15.27;9.25;;;;;;;-0.11;100.00;100522.47;5070940;28;20031;-79
2021/12/21 07:52:42;;;;;;;16.17;8.57;;;;;;;-0.09;100.00;100523.31;5070797;28;20045;-79
2021/12/21 07:55:07;;;;;;;21.88;11.68;;;;;;;-0.15;100.00;100508.75;5071121;28;20078;-79
2021/12/21 07:57:33;;;;;;;15.20;8.75;;;;;;;-0.07;100.00;100513.97;5072055;28;20025;-79
2021/12/21 08:00:01;;;;;;;14.82;8.35;;;;;;;-0.03;100.00;100523.41;5070948;28;20491;-79
2021/12/21 08:02:27;;;;;;;14.48;7.35;;;;;;;-0.02;100.00;100523.41;5071869;28;20032;-80
2021/12/21 08:04:53;;;;;;;12.32;7.22;;;;;;;0.03;100.00;100525.16;5072350;28;20024;-80
2021/12/21 08:07:23;;;;;;;11.25;6.53;;;;;;;0.03;100.00;100518.31;5070608;28;20111;-79
2021/12/21 08:09:52;;;;;;;10.80;6.03;;;;;;;0.02;100.00;100516.63;5072239;28;20078;-79
2021/12/21 08:12:18;;;;;;;10.60;6.65;;;;;;;0.16;100.00;100524.41;5070582;28;20097;-80
2021/12/21 08:14:45;;;;;;;11.25;6.97;;;;;;;0.13;100.00;100516.72;5071927;28;20029;-80
2021/12/21 08:17:11;;;;;;;25.67;12.23;;;;;;;0.22;100.00;100522.78;5070748;28;20033;-80
2021/12/21 08:19:36;;;;;;;24.55;12.27;;;;;;;0.26;100.00;100527.94;5072102;28;20031;-80
2021/12/21 08:22:03;;;;;;;17.13;10.07;;;;;;;0.19;100.00;100509.94;5070802;28;20122;-80
2021/12/21 08:24:29;;;;;;;14.25;7.13;;;;;;;0.20;100.00;100508.25;5070237;28;20123;-79
2021/12/21 08:26:59;;;;;;;11.13;6.13;;;;;;;0.37;100.00;100542.56;5070424;28;20119;-80
2021/12/21 08:29:25;;;;;;;15.73;8.35;;;;;;;0.35;100.00;100535.72;5069956;28;20426;-79
2021/12/21 08:31:50;;;;;;;17.15;8.20;;;;;;;0.37;100.00;100529.75;5070687;28;20063;-80
2021/12/21 08:34:16;;;;;;;22.08;10.63;;;;;;;0.39;100.00;100533.19;5066004;28;20040;-80
2021/12/21 08:36:42;;;;;;;15.35;8.73;;;;;;;0.37;100.00;100523.75;5077093;28;20089;-93
2021/12/21 08:39:11;;;;;;;15.00;7.30;;;;;;;0.49;100.00;100545.22;5079235;28;20040;-93
2021/12/21 08:41:41;;;;;;;18.65;10.95;;;;;;;0.47;100.00;100534.13;5095679;28;20027;-90
2021/12/21 08:44:29;;;;;;;24.23;12.27;;;;;;;0.53;100.00;100535.00;5078066;28;20020;-94
2021/12/21 08:46:57;;;;;;;24.08;12.02;;;;;;;0.56;100.00;100533.34;5036045;28;20082;-89
2021/12/21 08:49:23;;;;;;;17.20;8.85;;;;;;;0.58;100.00;100539.31;5051876;28;20028;-91
2021/12/21 08:51:48;;;;;;;14.15;7.97;;;;;;;0.65;100.00;100550.50;5039971;28;20106;-91
2021/12/21 08:54:14;;;;;;;15.32;8.27;;;;;;;0.61;100.00;100543.63;5054490;28;20079;-91
2021/12/21 08:56:39;;;;;;;11.75;7.25;;;;;;;0.73;100.00;100559.97;5037535;28;20076;-91
2021/12/21 08:59:05;;;;;;;18.52;11.45;;;;;;;0.75;100.00;100554.84;5055619;28;20061;-92
2021/12/21 09:01:33;;;;;;;20.67;11.88;;;;;;;0.76;100.00;100564.28;5039047;28;20624;-92
2021/12/21 09:03:59;;;;;;;12.75;8.25;;;;;;;0.71;100.00;100547.97;5039328;28;20477;-91
2021/12/21 09:06:24;;;;;;;18.00;11.65;;;;;;;0.79;99.96;100564.28;5058472;28;20137;-86
2021/12/21 09:08:50;;;;;;;16.55;10.15;;;;;;;0.81;100.00;100554.91;5051755;28;20514;-84
2021/12/21 09:11:15;;;;;;;11.85;7.47;;;;;;;0.84;99.73;100559.19;5036474;28;20032;-86
2021/12/21 09:13:41;;;;;;;20.20;11.65;;;;;;;0.84;99.30;100552.34;5051967;28;20046;-89
2021/12/21 09:16:08;;;;;;;13.90;9.05;;;;;;;0.90;99.25;100551.53;5035954;28;20091;-89
2021/12/21 09:18:34;;;;;;;10.85;6.95;;;;;;;0.86;99.19;100550.66;5035900;28;20051;-89
2021/12/21 09:21:00;;;;;;;17.63;7.78;;;;;;;0.95;98.44;100560.13;5074594;28;20020;-95
2021/12/21 09:24:20;;;;;;;15.27;7.47;;;;;;;1.00;98.81;100555.88;5058068;28;20119;-93
2021/12/21 09:26:48;;;;;;;17.73;9.93;;;;;;;1.04;98.37;100549.91;5051986;28;20040;-88
2021/12/21 09:29:13;;;;;;;17.02;8.88;;;;;;;1.05;97.94;100543.06;5055563;28;20035;-89
2021/12/21 09:31:43;;;;;;;16.90;8.68;;;;;;;1.05;97.10;100546.50;5073144;28;20040;-90
2021/12/21 09:34:08;;;;;;;28.75;13.93;;;;;;;1.06;97.15;100542.25;5057611;28;20067;-90
2021/12/21 09:36:34;;;;;;;31.77;16.52;;;;;;;1.03;97.47;100539.66;5057442;28;20133;-90
2021/12/21 09:39:02;;;;;;;31.05;15.57;;;;;;;1.08;97.23;100540.53;5058433;28;20047;-93
2021/12/21 09:41:32;;;;;;;29.90;13.75;;;;;;;1.15;96.99;100553.41;5042343;28;20376;-95
2021/12/21 09:44:01;;;;;;;22.85;11.10;;;;;;;1.04;96.65;100526.81;5074721;28;20498;-83
2021/12/21 09:46:26;;;;;;;17.08;9.18;;;;;;;1.16;95.44;100544.00;5031559;28;20060;-94
2021/12/21 09:49:11;;;;;;;20.42;10.43;;;;;;;1.29;94.81;100555.19;5019080;28;20038;-94
2021/12/21 09:51:37;;;;;;;13.38;8.02;;;;;;;1.24;93.30;100538.06;4996558;28;1191234;-91
2021/12/21 09:54:02;;;;;;;12.23;7.25;;;;;;;1.27;91.36;100542.38;5038223;28;20502;-90
2021/12/21 09:56:28;;;;;;;18.33;11.48;;;;;;;1.19;91.13;100539.75;5036693;28;20155;-89
2021/12/21 09:58:53;;;;;;;24.17;13.40;;;;;;;1.27;91.57;100551.78;5018151;28;20391;-90
2021/12/21 10:01:21;;;;;;;35.47;18.20;;;;;;;1.32;90.71;100552.66;5032060;28;20041;-94
2021/12/21 10:03:47;;;;;;;15.32;10.30;;;;;;;1.31;90.43;100536.41;5039350;28;20037;-92
2021/12/21 10:06:12;;;;;;;16.13;8.95;;;;;;;1.41;90.98;100547.56;5039202;28;20028;-92
2021/12/21 10:08:39;;;;;;;16.63;8.40;;;;;;;1.42;90.17;100545.00;5055614;28;20032;-86
2021/12/21 10:11:06;;;;;;;15.88;8.00;;;;;;;1.40;89.96;100540.72;5051800;28;20131;-85
2021/12/21 10:13:36;;;;;;;11.75;7.10;;;;;;;1.23;89.73;100513.28;5034563;28;20127;-85
2021/12/21 10:16:05;;;;;;;16.95;9.18;;;;;;;1.42;88.85;100536.44;5051310;28;20029;-85
2021/12/21 10:18:41;;;;;;;14.63;7.95;;;;;;;1.45;89.14;100534.75;5070518;28;20140;-85
2021/12/21 10:21:12;;;;;;;10.82;6.82;;;;;;;1.60;88.97;100545.94;5031209;28;20030;-85
2021/12/21 10:23:42;;;;;;;13.98;7.35;;;;;;;1.61;88.74;100538.25;5047857;28;20045;-85
2021/12/21 10:26:30;;;;;;;21.73;11.38;;;;;;;1.72;87.92;100538.28;5031255;28;20033;-85
2021/12/21 10:29:00;;;;;;;19.67;9.48;;;;;;;1.77;87.13;100535.72;5031473;28;20076;-85
2021/12/21 10:31:27;;;;;;;13.90;7.60;;;;;;;1.78;86.76;100535.75;5021737;28;20552;-85
2021/12/21 10:33:54;;;;;;;12.35;6.60;;;;;;;1.72;86.16;100530.56;5045294;28;20033;-85
2021/12/21 10:36:39;;;;;;;9.90;5.38;;;;;;;1.79;85.79;100542.59;5032371;28;20045;-91
2021/12/21 10:39:05;;;;;;;10.43;5.93;;;;;;;1.77;84.40;100536.59;5011331;28;20041;-89
2021/12/21 10:41:42;;;;;;;11.35;6.53;;;;;;;1.66;83.38;100535.69;5044625;28;20052;-85
2021/12/21 10:44:11;;;;;;;12.98;7.03;;;;;;;1.60;82.80;100543.38;5051063;28;20499;-87
2021/12/21 10:46:42;;;;;;;18.40;11.85;;;;;;;1.60;83.52;100538.22;5046029;28;20029;-86
2021/12/21 10:49:08;;;;;;;;;;;;;;;1.63;84.34;100533.13;5031817;28;20065;-87
2021/12/21 10:51:36;;;;;;;19.88;10.27;;;;;;;1.57;83.67;100531.41;5016481;28;19912;-83
2021/12/21 10:54:02;;;;;;;23.77;12.27;;;;;;;1.64;84.91;100535.69;5001016;28;20033;-90
2021/12/21 10:56:29;;;;;;;31.13;16.83;;;;;;;1.62;85.80;100533.97;5033423;28;20044;-90
2021/12/21 10:58:54;;;;;;;32.35;18.92;;;;;;;1.47;86.55;100506.50;5033184;28;20029;-89
2021/12/21 11:01:27;;;;;;;25.73;15.15;;;;;;;1.53;87.24;100501.41;5030738;28;20045;-80
2021/12/21 11:03:56;;;;;;;28.42;16.33;;;;;;;1.62;87.67;100518.56;5037312;28;20499;-80
2021/12/21 11:06:31;;;;;;;23.42;14.45;;;;;;;1.44;87.89;100481.72;5050335;28;20041;-80
2021/12/21 11:08:58;;;;;;;15.10;9.52;;;;;;;1.69;87.83;100525.44;5050475;28;20041;-81
2021/12/21 11:11:34;;;;;;;23.23;11.43;;;;;;;1.65;88.35;100519.44;5051146;28;20044;-80
2021/12/21 11:14:20;;;;;;;20.75;12.48;;;;;;;1.74;89.86;100546.88;5052968;28;20039;-80
2021/12/21 11:17:12;;;;;;;21.00;11.65;;;;;;;1.68;90.45;100528.84;5057167;28;20064;-80
2021/12/21 11:19:39;;;;;;;19.33;11.52;;;;;;;1.64;90.19;100511.72;5090064;28;20040;-80
2021/12/21 11:22:05;;;;;;;22.77;12.48;;;;;;;1.75;90.14;100520.31;5090430;28;20051;-81
2021/12/21 11:24:32;;;;;;;19.98;11.45;;;;;;;1.71;90.73;100506.59;5072953;28;20036;-80
2021/12/21 11:27:02;;;;;;;19.08;11.88;;;;;;;1.77;90.90;100510.94;5073512;28;20043;-81
2021/12/21 11:29:34;;;;;;;20.02;11.35;;;;;;;1.88;91.10;100518.66;5076088;28;20051;-81
2021/12/21 11:32:03;;;;;;;38.25;18.23;;;;;;;1.89;91.38;100515.22;5053317;28;20144;-80
2021/12/21 11:34:36;;;;;;;33.92;15.48;;;;;;;1.94;91.37;100516.97;5053130;28;20086;-81
2021/12/21 11:37:21;;;;;;;75.75;24.58;;;;;;;1.95;91.39;100510.97;5049730;28;20041;-80
2021/12/21 11:39:47;;;;;;;52.97;17.98;;;;;;;1.98;91.99;100515.22;5021876;28;20091;-80
2021/12/21 11:42:47;;;;;;;69.18;24.00;;;;;;;1.95;92.29;100526.38;5049646;28;20527;-81
2021/12/21 11:45:18;;;;;;;38.03;16.45;;;;;;;1.88;92.05;100509.22;5009772;28;20119;-81
2021/12/21 11:48:12;;;;;;;58.28;20.58;;;;;;;1.92;91.55;100515.22;4990577;28;20070;-81
2021/12/21 11:50:41;;;;;;;74.93;24.35;;;;;;;1.82;91.38;100491.25;4980994;28;20035;-80
2021/12/21 11:53:09;;;;;;;36.92;15.68;;;;;;;1.90;91.25;100493.84;4955024;28;20061;-80
2021/12/21 11:55:40;;;;;;;57.30;18.15;;;;;;;1.91;91.09;100491.25;4970127;28;20487;-80
2021/12/21 11:58:29;;;;;;;55.50;18.65;;;;;;;1.99;91.10;100516.97;4971029;28;20038;-80
2021/12/21 12:01:00;;;;;;;27.23;13.93;;;;;;;1.79;91.18;100495.50;4954915;28;20122;-81
2021/12/21 12:03:29;;;;;;;30.23;13.70;;;;;;;1.66;91.04;100484.34;4970860;28;20045;-82
2021/12/21 12:05:56;;;;;;;38.22;14.13;;;;;;;1.71;91.66;100508.31;4954930;28;20035;-83
2021/12/21 12:08:25;;;;;;;60.13;18.55;;;;;;;1.58;91.67;100486.03;4982334;28;20046;-83
2021/12/21 12:10:58;;;;;;;116.15;35.20;;;;;;;1.65;92.15;100514.31;4990319;28;20108;-83
2021/12/21 12:13:40;;;;;;;58.63;20.63;;;;;;;1.59;92.48;100510.84;4973780;28;20038;-83
2021/12/21 12:16:10;;;;;;;57.35;20.92;;;;;;;1.60;92.91;100509.97;4951486;29;20134;-83
2021/12/21 12:18:40;;;;;;;50.53;17.52;;;;;;;1.51;92.84;100492.84;4979155;28;20097;-83
2021/12/21 12:21:11;;;;;;;40.80;13.93;;;;;;;1.60;93.43;100520.25;4990221;28;20038;-84